createdAt,value
2022-10-11T00:01:37.193Z,9.40
2022-10-11T00:06:43.561Z,8.00
2022-10-11T00:11:46.820Z,8.40
2022-10-11T00:16:50.179Z,8.40
2022-10-11T00:21:53.900Z,10.90
2022-10-11T00:26:57.213Z,9.00
2022-10-11T00:32:00.528Z,7.60
2022-10-11T00:37:03.872Z,8.40
2022-10-11T00:42:16.362Z,8.40
2022-10-11T00:47:24.750Z,9.10
2022-10-11T00:52:37.128Z,6.90
2022-10-11T00:57:48.676Z,9.30
2022-10-11T01:02:52.159Z,8.30
2022-10-11T01:07:56.167Z,9.20
2022-10-11T01:13:30.505Z,9.50
2022-10-11T01:18:52.351Z,9.80
2022-10-11T01:24:25.992Z,11.50
2022-10-11T01:29:50.557Z,10.70
2022-10-11T01:35:06.624Z,9.20
2022-10-11T01:40:19.359Z,11.80
2022-10-11T01:45:23.351Z,13.20
2022-10-11T01:50:41.718Z,9.60
2022-10-11T01:56:03.560Z,12.10
2022-10-11T02:01:33.963Z,10.00
2022-10-11T02:06:56.726Z,13.10
2022-10-11T02:12:08.836Z,9.40
2022-10-11T02:17:22.863Z,9.80
2022-10-11T02:22:35.990Z,10.20
2022-10-11T02:27:41.713Z,12.60
2022-10-11T02:32:48.384Z,11.60
2022-10-11T02:38:16.023Z,11.30
2022-10-11T02:43:43.116Z,13.00
2022-10-11T02:48:46.360Z,11.90
2022-10-11T02:53:49.734Z,12.90
2022-10-11T02:58:53.052Z,12.50
2022-10-11T03:03:56.351Z,9.00
2022-10-11T03:08:59.663Z,12.70
2022-10-11T03:14:03.269Z,12.20
2022-10-11T03:19:06.908Z,13.20
2022-10-11T03:24:10.187Z,19.30
2022-10-11T03:29:13.501Z,12.80
2022-10-11T03:34:16.815Z,13.50
2022-10-11T03:39:20.455Z,15.50
2022-10-11T03:44:23.801Z,11.80
2022-10-11T03:49:27.363Z,10.60
2022-10-11T03:54:30.678Z,10.80
2022-10-11T03:59:34.041Z,13.20
2022-10-11T04:04:37.672Z,15.80
2022-10-11T04:09:41.043Z,22.00
2022-10-11T04:14:44.402Z,21.70
2022-10-11T04:19:47.766Z,13.50
2022-10-11T04:24:51.145Z,11.50
2022-10-11T04:29:54.737Z,11.70
2022-10-11T04:34:58.110Z,16.00
2022-10-11T04:40:01.441Z,9.40
2022-10-11T04:45:06.049Z,12.70
2022-10-11T04:50:09.374Z,11.80
2022-10-11T04:55:12.649Z,11.20
2022-10-11T05:00:16.863Z,13.70
2022-10-11T05:05:20.122Z,15.10
2022-10-11T05:10:23.539Z,11.80
2022-10-11T05:15:27.057Z,14.30
2022-10-11T05:20:30.592Z,12.70
2022-10-11T05:25:33.893Z,18.50
2022-10-11T05:30:37.180Z,14.90
2022-10-11T05:35:40.611Z,14.30
2022-10-11T05:40:44.329Z,14.90
2022-10-11T05:45:47.742Z,13.40
2022-10-11T05:50:51.534Z,13.70
2022-10-11T05:55:55.188Z,17.90
2022-10-11T06:00:58.610Z,15.90
2022-10-11T06:06:05.273Z,17.60
2022-10-11T06:11:25.599Z,16.20
2022-10-11T06:16:28.912Z,12.70
2022-10-11T06:21:33.148Z,15.90
2022-10-11T06:26:36.551Z,15.50
2022-10-11T06:31:39.867Z,17.40
2022-10-11T06:36:43.205Z,14.50
2022-10-11T06:41:46.699Z,13.50
2022-10-11T06:46:50.005Z,13.00
2022-10-11T06:51:53.361Z,12.70
2022-10-11T06:56:56.657Z,10.20
2022-10-11T07:01:59.943Z,16.30
2022-10-11T07:07:03.284Z,10.30
2022-10-11T07:12:07.992Z,10.10
2022-10-11T07:17:11.412Z,7.40
2022-10-11T07:22:14.727Z,7.20
2022-10-11T07:27:18.137Z,6.90
2022-10-11T07:32:21.554Z,6.10
2022-10-11T07:37:25.180Z,5.70
2022-10-11T07:42:30.426Z,5.30
2022-10-11T07:47:34.548Z,6.30
2022-10-11T07:52:38.690Z,7.30
2022-10-11T07:57:42.701Z,7.00
2022-10-11T08:02:46.274Z,12.30
2022-10-11T08:07:49.647Z,6.90
2022-10-11T08:12:54.153Z,5.00
2022-10-11T08:17:57.705Z,6.20
2022-10-11T08:23:01.239Z,6.50
2022-10-11T08:28:05.389Z,4.10
2022-10-11T08:33:08.826Z,5.10
2022-10-11T08:38:13.901Z,5.90
2022-10-11T08:43:49.289Z,6.70
2022-10-11T08:48:53.518Z,5.20
2022-10-11T08:54:31.539Z,8.00
2022-10-11T09:00:14.898Z,7.00
2022-10-11T09:05:20.010Z,6.30
2022-10-11T09:10:53.149Z,7.10
2022-10-11T09:16:15.204Z,4.60
2022-10-11T09:21:54.894Z,4.60
2022-10-11T09:27:09.861Z,5.80
2022-10-11T09:32:23.511Z,5.10
2022-10-11T09:38:03.195Z,5.20
2022-10-11T09:43:09.451Z,4.80
2022-10-11T09:48:29.149Z,8.10
2022-10-11T09:54:00.108Z,4.50
2022-10-11T09:59:33.691Z,5.80
2022-10-11T10:04:55.306Z,5.60
2022-10-11T10:09:59.829Z,9.50
2022-10-11T10:15:20.128Z,3.20
2022-10-11T10:20:35.619Z,3.90
2022-10-11T10:25:43.554Z,7.80
2022-10-11T10:30:58.417Z,6.20
2022-10-11T10:36:19.446Z,3.90
2022-10-11T10:41:22.863Z,4.50
2022-10-11T10:46:41.637Z,4.20
2022-10-11T10:52:12.490Z,5.70
2022-10-11T10:57:28.960Z,8.80
2022-10-11T11:02:47.437Z,5.50
2022-10-11T11:07:59.082Z,6.30
2022-10-11T11:13:43.724Z,6.30
2022-10-11T11:19:05.649Z,6.90
2022-10-11T11:24:20.104Z,3.90
2022-10-11T11:29:54.499Z,5.70
2022-10-11T11:35:21.185Z,6.50
2022-10-11T11:40:43.273Z,5.50
2022-10-11T11:45:56.844Z,5.30
2022-10-11T11:51:21.272Z,4.30
2022-10-11T11:57:11.716Z,6.10
2022-10-11T12:02:45.844Z,5.20
2022-10-11T12:08:24.345Z,5.50
2022-10-11T12:13:35.580Z,9.30
2022-10-11T12:18:56.810Z,5.90
2022-10-11T12:24:22.553Z,6.40
2022-10-11T12:29:41.589Z,7.80
2022-10-11T12:34:45.564Z,5.10
2022-10-11T12:39:55.027Z,6.20
2022-10-11T12:45:13.807Z,5.30
2022-10-11T12:50:44.483Z,4.20
2022-10-11T12:56:09.635Z,7.00
2022-10-11T13:01:22.834Z,4.80
2022-10-11T13:06:33.574Z,5.10
2022-10-11T13:12:02.984Z,5.20
2022-10-11T13:17:32.343Z,6.50
2022-10-11T13:22:40.971Z,4.00
2022-10-11T13:27:44.974Z,4.60
2022-10-11T13:32:48.908Z,6.80
2022-10-11T13:37:52.652Z,6.10
2022-10-11T13:42:57.056Z,7.70
2022-10-11T13:48:00.604Z,8.30
2022-10-11T13:53:24.801Z,4.70
2022-10-11T13:58:38.969Z,3.90
2022-10-11T14:04:02.893Z,5.00
2022-10-11T14:09:06.823Z,5.30
2022-10-11T14:14:36.009Z,6.50
2022-10-11T14:19:40.451Z,9.60
2022-10-11T14:24:48.603Z,14.10
2022-10-11T14:30:12.986Z,6.10
2022-10-11T14:35:28.355Z,3.60
2022-10-11T14:40:32.190Z,13.30
2022-10-11T14:45:35.505Z,13.30
2022-10-11T14:50:48.135Z,16.50
2022-10-11T14:55:52.103Z,14.10
2022-10-11T15:00:55.372Z,12.40
2022-10-11T15:05:58.669Z,23.70
2022-10-11T15:11:02.407Z,27.90
2022-10-11T15:16:07.095Z,43.70
2022-10-11T15:21:14.952Z,24.10
2022-10-11T15:26:24.180Z,10.70
2022-10-11T15:31:27.535Z,5.40
2022-10-11T15:36:31.662Z,5.00
2022-10-11T15:41:36.500Z,5.00
2022-10-11T15:46:41.826Z,8.40
2022-10-11T15:51:45.180Z,5.60
2022-10-11T15:56:48.491Z,4.40
2022-10-11T16:01:51.896Z,3.60
2022-10-11T16:06:55.333Z,5.50
2022-10-11T16:11:58.739Z,4.40
2022-10-11T16:17:04.244Z,4.80
2022-10-11T16:22:07.547Z,8.50
2022-10-11T16:27:14.178Z,11.50
2022-10-11T16:32:20.842Z,7.40
2022-10-11T16:37:24.274Z,5.80
2022-10-11T16:42:27.818Z,7.70
2022-10-11T16:47:31.746Z,7.60
2022-10-11T16:52:35.124Z,6.60
2022-10-11T16:57:38.736Z,9.60
2022-10-11T17:02:42.085Z,9.50
2022-10-11T17:07:45.397Z,9.90
2022-10-11T17:12:50.293Z,11.40
2022-10-11T17:17:56.240Z,8.80
2022-10-11T17:22:59.736Z,9.80
2022-10-11T17:28:03.149Z,15.20
2022-10-11T17:33:06.967Z,30.70
2022-10-11T17:38:10.552Z,28.30
2022-10-11T17:43:15.985Z,61.20
2022-10-11T17:48:19.267Z,135.80
2022-10-11T17:53:23.636Z,160.40
2022-10-11T17:58:27.298Z,102.90
2022-10-11T18:03:30.844Z,62.80
2022-10-11T18:08:40.148Z,38.40
2022-10-11T18:13:47.431Z,30.40
2022-10-11T18:18:51.013Z,24.80
2022-10-11T18:23:54.435Z,22.90
2022-10-11T18:28:59.078Z,15.80
2022-10-11T18:34:05.246Z,16.90
2022-10-11T18:39:14.399Z,19.10
2022-10-11T18:44:17.807Z,22.40
2022-10-11T18:49:21.036Z,24.30
2022-10-11T18:54:24.301Z,20.10
2022-10-11T18:59:27.952Z,20.40
2022-10-11T19:04:34.492Z,19.60
2022-10-11T19:09:38.312Z,12.70
2022-10-11T19:14:42.637Z,15.50
2022-10-11T19:19:46.111Z,14.10
2022-10-11T19:24:49.403Z,11.40
2022-10-11T19:29:53.040Z,11.20
2022-10-11T19:34:56.354Z,10.60
2022-10-11T19:40:01.590Z,14.00
2022-10-11T19:45:06.277Z,10.40
2022-10-11T19:50:10.542Z,11.30
2022-10-11T19:55:14.104Z,15.60
2022-10-11T20:00:18.747Z,12.30
2022-10-11T20:05:21.968Z,11.90
2022-10-11T20:10:25.885Z,16.10
2022-10-11T20:15:29.194Z,15.20
2022-10-11T20:20:32.602Z,17.20
2022-10-11T20:25:35.916Z,13.50
2022-10-11T20:30:43.778Z,10.00
2022-10-11T20:36:04.558Z,10.60
2022-10-11T20:41:21.383Z,10.80
2022-10-11T20:46:34.459Z,9.90
2022-10-11T20:51:41.871Z,9.40
2022-10-11T20:56:45.457Z,13.30
2022-10-11T21:01:49.224Z,14.90
2022-10-11T21:06:52.789Z,10.20
2022-10-11T21:11:56.092Z,11.80
2022-10-11T21:16:59.398Z,11.90
2022-10-11T21:22:02.825Z,13.60
2022-10-11T21:27:06.113Z,10.60
2022-10-11T21:32:13.570Z,12.30
2022-10-11T21:37:17.882Z,10.10
2022-10-11T21:42:22.284Z,11.20
2022-10-11T21:47:28.298Z,10.30
2022-10-11T21:52:31.821Z,14.00
2022-10-11T21:57:35.167Z,15.30
2022-10-11T22:02:38.543Z,13.10
2022-10-11T22:07:41.848Z,15.80
2022-10-11T22:12:45.260Z,12.10
2022-10-11T22:17:48.469Z,11.10
2022-10-11T22:22:51.989Z,13.10
2022-10-11T22:27:55.194Z,10.00
2022-10-11T22:32:58.433Z,8.70
2022-10-11T22:38:01.722Z,11.70
2022-10-11T22:43:04.968Z,11.30
2022-10-11T22:48:09.166Z,18.30
2022-10-11T22:53:14.379Z,11.50
2022-10-11T22:58:17.930Z,12.70
2022-10-11T23:03:21.433Z,12.40
2022-10-11T23:08:25.847Z,10.30
2022-10-11T23:13:29.120Z,11.30
2022-10-11T23:18:32.404Z,11.80
2022-10-11T23:23:35.956Z,10.60
2022-10-11T23:28:40.007Z,10.50
2022-10-11T23:33:45.140Z,14.70
2022-10-11T23:38:54.663Z,10.50
2022-10-11T23:43:58.908Z,12.00
2022-10-11T23:49:02.410Z,10.60
2022-10-11T23:54:06.215Z,11.70
2022-10-11T23:59:09.992Z,13.00
